F/V Anna Mamm Mari — FOHD — position and weather

sailwx.info

Track history (hours):
 
Tides and Currents Weather Stations Pressure Air Temp Water Temp Dewpoint Dewpoint Depression Visibility Wind Speed Wind Dir Waves Ship Positions

F/V Anna Mamm Mari

Last reported at 2017-Sep-26 02:47 UTC. Time now 2017-Sep-26 03:45 UTC.
Position N 46°29' W 002°04'.

Length 17 m.

Type: Fishing. MMSI: 228393000.

Date/timePositionNaut miles runAvg speedWind from/ knotsBaromVisibWave heightAir tempDewpointWater temp
2017-Sep-26 02:47N 46°29' W 002°04'0 0.2
2017-Sep-26 02:30N 46°29' W 002°04'0 0.2
2017-Sep-26 02:00N 46°29' W 002°04'0 0.2
2017-Sep-26 01:30N 46°29' W 002°04'0 0.1
2017-Sep-26 01:00N 46°29' W 002°04'0 0.1
2017-Sep-26 00:29N 46°29' W 002°04'0 0.0
2017-Sep-26 00:00N 46°29' W 002°04'0 0.1
2017-Sep-25 23:30N 46°29' W 002°04'0 0.1
2017-Sep-25 23:00N 46°29' W 002°04'0 0.1
2017-Sep-25 22:31N 46°29' W 002°04'0 0.1
2017-Sep-25 22:00N 46°29' W 002°04'0 0.1
2017-Sep-25 21:30N 46°29' W 002°04'0 0.0
2017-Sep-25 21:00N 46°29' W 002°04'0 0.1
2017-Sep-25 20:31N 46°29' W 002°04'0 0.0
2017-Sep-25 20:01N 46°29' W 002°04'0 0.0
2017-Sep-25 19:30N 46°29' W 002°04'0 0.0
2017-Sep-25 18:59N 46°29' W 002°04'0 0.0
2017-Sep-25 18:30N 46°29' W 002°04'0 0.1
2017-Sep-25 17:40N 46°29' W 002°04'0 2.4
2017-Sep-25 17:31N 46°29' W 002°03'0 0.8
2017-Sep-25 17:00N 46°29' W 002°04'0 0.8
2017-Sep-25 16:26N 46°28' W 002°04'0 0.9
2017-Sep-25 16:00N 46°28' W 002°04'1 1.2
2017-Sep-25 15:20N 46°27' W 002°03'1 3.8
2017-Sep-25 15:00N 46°28' W 002°04'2 3.1
2017-Sep-25 14:31N 46°27' W 002°04'0 0.2
2017-Sep-25 13:57N 46°27' W 002°04'1 3.3
2017-Sep-25 13:30N 46°28' W 002°05'2 4.2
2017-Sep-25 13:00N 46°26' W 002°04'0 0.6
2017-Sep-25 12:25N 46°26' W 002°04'1 1.6
2017-Sep-25 12:00N 46°27' W 002°05'1 1.5
2017-Sep-25 11:30N 46°28' W 002°05'1 1.7
2017-Sep-25 10:59N 46°28' W 002°05'1 2.0
2017-Sep-25 10:30N 46°28' W 002°05'1 2.0
2017-Sep-25 10:00N 46°27' W 002°04'1 1.4
2017-Sep-25 09:30N 46°26' W 002°04'1 1.9
2017-Sep-25 09:00N 46°27' W 002°04'1 2.2
2017-Sep-25 08:30N 46°28' W 002°05'0 0.4
2017-Sep-25 08:00N 46°28' W 002°05'1 1.4
2017-Sep-25 07:30N 46°28' W 002°04'1 2.1
2017-Sep-25 06:59N 46°27' W 002°04'0 0.2
2017-Sep-25 06:17N 46°27' W 002°03'0 1.4
2017-Sep-25 06:00N 46°27' W 002°04'1 2.2
2017-Sep-25 05:30N 46°28' W 002°04'1 1.5
2017-Sep-25 04:58N 46°29' W 002°05'1 1.6
2017-Sep-25 04:30N 46°28' W 002°04'1 1.7
2017-Sep-25 03:59N 46°27' W 002°04'4 7.1
2017-Sep-25 03:27N 46°28' W 001°58'4 8.9
2017-Sep-25 03:00N 46°28' W 001°53'4 7.4
2017-Sep-25 02:31N 46°29' W 001°47'1 1.2
2017-Sep-25 02:01N 46°30' W 001°47'0 0.0
2017-Sep-25 01:30N 46°30' W 001°47'0 0.0
2017-Sep-25 01:00N 46°30' W 001°47'0 0.0
2017-Sep-25 00:30N 46°30' W 001°47'0 0.0
2017-Sep-25 00:00N 46°30' W 001°47'0 0.0
2017-Sep-24 23:31N 46°30' W 001°47'0 0.0
2017-Sep-24 23:00N 46°30' W 001°47'0 0.0
2017-Sep-24 22:30N 46°30' W 001°47'0 0.0
2017-Sep-24 22:01N 46°30' W 001°47'0 0.0
2017-Sep-24 21:30N 46°30' W 001°47'0 0.0
2017-Sep-24 21:00N 46°30' W 001°47'0 0.0
2017-Sep-24 20:31N 46°30' W 001°47'0 0.0
2017-Sep-24 20:00N 46°30' W 001°47'0 0.0
2017-Sep-24 19:30N 46°30' W 001°47'0 0.0
2017-Sep-24 19:00N 46°30' W 001°47'0 0.0
2017-Sep-24 18:30N 46°30' W 001°47'0 0.0
2017-Sep-24 18:00N 46°30' W 001°47'0 0.0
2017-Sep-24 17:30N 46°30' W 001°47'0 0.3
2017-Sep-24 17:00N 46°30' W 001°47'0 0.3
2017-Sep-24 16:30N 46°30' W 001°47'0 0.1
2017-Sep-24 16:00N 46°30' W 001°47'1 1.7
2017-Sep-24 15:30N 46°29' W 001°47'4 8.4
2017-Sep-24 15:00N 46°28' W 001°53'4 9.0
2017-Sep-24 14:31N 46°28' W 001°60'3 6.5
2017-Sep-24 14:00N 46°29' W 002°04'4 8.9
2017-Sep-24 13:30N 46°27' W 002°10'2 1.7
2017-Sep-24 12:37N 46°25' W 002°09'1 6.5
2017-Sep-24 12:27N 46°26' W 002°08'3 7.0
2017-Sep-24 12:00N 46°28' W 002°04'1 2.4
2017-Sep-24 11:30N 46°27' W 002°03'2 4.0
2017-Sep-24 11:00N 46°28' W 002°05'2 3.4
2017-Sep-24 10:30N 46°27' W 002°04'0 0.3
2017-Sep-24 09:59N 46°27' W 002°04'0 0.3
2017-Sep-24 09:31N 46°27' W 002°04'2 3.1
2017-Sep-24 09:01N 46°28' W 002°05'1 1.5
2017-Sep-24 08:30N 46°27' W 002°05'1 2.2
2017-Sep-24 08:00N 46°27' W 002°04'2 3.2
2017-Sep-24 07:30N 46°28' W 002°05'1 1.1
2017-Sep-24 06:58N 46°28' W 002°04'1 2.2
2017-Sep-24 06:30N 46°27' W 002°03'0 0.3
2017-Sep-24 05:57N 46°27' W 002°03'1 2.9
2017-Sep-24 05:30N 46°28' W 002°04'1 2.0
2017-Sep-24 05:00N 46°29' W 002°04'1 2.7
2017-Sep-24 04:30N 46°28' W 002°03'1 1.5
2017-Sep-24 04:00N 46°27' W 002°03'1 2.4
2017-Sep-24 03:29N 46°28' W 002°03'0 0.0
2017-Sep-24 03:00N 46°28' W 002°03'0 0.0
2017-Sep-24 02:30N 46°28' W 002°03'0 0.0
2017-Sep-24 02:00N 46°28' W 002°04'0 0.0
2017-Sep-24 01:30N 46°28' W 002°04'0 0.1
2017-Sep-24 01:00N 46°28' W 002°04'0 0.1
2017-Sep-24 00:30N 46°28' W 002°04'0 0.2
2017-Sep-24 00:00N 46°28' W 002°04'0 0.1
2017-Sep-23 23:30N 46°28' W 002°04'0 0.1
2017-Sep-23 23:00N 46°28' W 002°04'0 0.0
2017-Sep-23 22:30N 46°28' W 002°04'0 0.0
2017-Sep-23 22:00N 46°28' W 002°04'0 0.0
2017-Sep-23 21:30N 46°28' W 002°04'0 0.1
2017-Sep-23 21:00N 46°28' W 002°04'0 0.2
2017-Sep-23 20:30N 46°28' W 002°04'0 0.2
2017-Sep-23 20:00N 46°28' W 002°04'0 0.0
2017-Sep-22 02:00N 46°28' W 002°04'0 0.0
2017-Sep-22 01:30N 46°28' W 002°04'0 0.0
2017-Sep-22 01:00N 46°28' W 002°04'0 0.1
2017-Sep-22 00:30N 46°28' W 002°04'0 0.0
2017-Sep-22 00:00N 46°28' W 002°04'0 0.0
2017-Sep-21 23:31N 46°28' W 002°04'0 0.0
2017-Sep-21 23:01N 46°28' W 002°04'0 0.0
2017-Sep-21 22:30N 46°28' W 002°04'0 0.0
2017-Sep-21 22:00N 46°28' W 002°04'0 0.0
2017-Sep-21 21:30N 46°28' W 002°04'0 0.0
2017-Sep-21 21:00N 46°28' W 002°04'0 0.0
2017-Sep-21 20:30N 46°28' W 002°04'0 0.0
2017-Sep-21 20:01N 46°28' W 002°04'0 0.0
2017-Sep-21 19:30N 46°28' W 002°04'0 0.0
2017-Sep-21 19:00N 46°28' W 002°04'0 0.0
2017-Sep-21 18:30N 46°28' W 002°04'0 0.0
2017-Sep-21 18:00N 46°28' W 002°04'0 0.0
2017-Sep-21 17:30N 46°28' W 002°04'0 0.0
2017-Sep-21 17:00N 46°28' W 002°04'0 0.1
2017-Sep-21 16:30N 46°28' W 002°04'0 0.1
2017-Sep-21 15:52N 46°28' W 002°03'0 0.1
2017-Sep-21 15:30N 46°28' W 002°03'0 0.0
2017-Sep-21 15:00N 46°28' W 002°03'0 0.0
2017-Sep-21 14:30N 46°28' W 002°03'0 0.1
2017-Sep-21 14:00N 46°28' W 002°04'0 0.0
2017-Sep-21 13:30N 46°28' W 002°04'0 0.0
2017-Sep-21 13:00N 46°28' W 002°04'0 0.8
2017-Sep-21 12:30N 46°28' W 002°04'0 0.9
2017-Sep-21 12:00N 46°28' W 002°05'1 2.6
2017-Sep-21 11:30N 46°27' W 002°04'0 1.0
2017-Sep-21 11:00N 46°27' W 002°04'1 1.0
2017-Sep-21 10:26N 46°27' W 002°05'1 3.0
2017-Sep-21 10:00N 46°26' W 002°04'1 2.8
2017-Sep-21 09:30N 46°27' W 002°05'1 2.5
2017-Sep-21 09:01N 46°28' W 002°06'1 2.2
2017-Sep-21 08:27N 46°27' W 002°05'1 2.6
2017-Sep-21 08:00N 46°26' W 002°04'0 0.7
2017-Sep-21 07:30N 46°26' W 002°04'1 2.7
2017-Sep-21 07:00N 46°28' W 002°05'0 0.4
2017-Sep-21 06:26N 46°27' W 002°05'1 2.0
2017-Sep-21 06:00N 46°28' W 002°05'1 2.7
2017-Sep-21 05:30N 46°27' W 002°04'1 2.7
2017-Sep-21 05:00N 46°26' W 002°03'1 2.1
2017-Sep-21 04:30N 46°27' W 002°03'1 2.4
2017-Sep-21 04:00N 46°28' W 002°04'3 5.5
2017-Sep-21 03:30N 46°28' W 002°00'4 8.2
2017-Sep-21 03:00N 46°28' W 001°54'4 8.4
2017-Sep-21 02:30N 46°28' W 001°48'2 3.2
2017-Sep-21 02:00N 46°30' W 001°47'0 0.0
2017-Sep-21 01:30N 46°30' W 001°47'0 0.0
2017-Sep-21 01:00N 46°30' W 001°47'0 0.0
2017-Sep-21 00:30N 46°30' W 001°47'0 0.0
2017-Sep-21 00:01N 46°30' W 001°47'0 0.0
2017-Sep-20 23:30N 46°30' W 001°47'0 0.0
2017-Sep-20 23:01N 46°30' W 001°47'0 0.0
2017-Sep-20 22:30N 46°30' W 001°47'0 0.0
2017-Sep-20 22:00N 46°30' W 001°47'0 0.0
2017-Sep-20 21:30N 46°30' W 001°47'0 0.0
2017-Sep-20 21:00N 46°30' W 001°47'0 0.0
2017-Sep-20 20:30N 46°30' W 001°47'0 0.0
2017-Sep-20 20:00N 46°30' W 001°47'0 0.0
2017-Sep-20 19:30N 46°30' W 001°47'0 0.0
2017-Sep-20 19:00N 46°30' W 001°47'0 0.1
2017-Sep-20 18:30N 46°30' W 001°47'0 0.0
2017-Sep-20 18:00N 46°30' W 001°47'0 0.0
2017-Sep-20 17:30N 46°30' W 001°47'0 0.0
2017-Sep-20 17:00N 46°30' W 001°47'0 0.0
2017-Sep-20 16:30N 46°30' W 001°47'0 0.0
2017-Sep-20 16:00N 46°30' W 001°47'0 0.3
2017-Sep-20 15:31N 46°30' W 001°47'0 0.0
2017-Sep-20 15:00N 46°30' W 001°47'0 0.0
2017-Sep-20 14:00N 46°30' W 001°47'0 0.0
2017-Sep-20 13:30N 46°30' W 001°47'1 1.2
2017-Sep-20 13:00N 46°29' W 001°47'4 8.1
2017-Sep-20 12:30N 46°28' W 001°53'4 8.7
2017-Sep-20 12:00N 46°28' W 001°59'3 5.7
2017-Sep-20 11:27N 46°27' W 002°04'1 1.5
2017-Sep-20 11:00N 46°28' W 002°04'2 3.0
2017-Sep-20 10:30N 46°26' W 002°04'2 4.9
2017-Sep-20 10:00N 46°28' W 002°06'3 5.7
2017-Sep-20 09:30N 46°25' W 002°05'3 5.3
2017-Sep-20 08:54N 46°24' W 002°09'1 2.0
2017-Sep-20 08:30N 46°25' W 002°09'1 2.5
2017-Sep-20 08:00N 46°26' W 002°10'1 1.0
2017-Sep-20 06:41N 46°25' W 002°09'1 2.8
2017-Sep-20 06:28N 46°24' W 002°08'1 2.3
2017-Sep-20 05:56N 46°23' W 002°07'0 1.1
2017-Sep-20 05:30N 46°23' W 002°08'9 0.5
2017-Sep-19 10:57N 46°19' W 001°56'4 8.0
2017-Sep-19 10:29N 46°17' W 001°52'4 8.9
2017-Sep-19 10:00N 46°13' W 001°49'9 0.2
2017-Sep-17 09:07N 46°20' W 001°58'0 2.8
2017-Sep-17 08:58N 46°20' W 001°57'0 0.4
2017-Sep-17 08:21N 46°20' W 001°58'0 0.5
2017-Sep-17 07:53N 46°20' W 001°58'0 0.3
2017-Sep-17 07:30N 46°20' W 001°58'0 0.7
2017-Sep-17 06:53N 46°20' W 001°58'1 2.2
2017-Sep-17 06:30N 46°19' W 001°58'0 0.7
2017-Sep-17 05:52N 46°19' W 001°58'2 2.4
2017-Sep-17 04:56N 46°17' W 001°56'1 1.6
2017-Sep-17 04:30N 46°18' W 001°56'1 0.8
2017-Sep-17 03:40N 46°18' W 001°57'1 2.9
2017-Sep-17 03:11N 46°17' W 001°56'0 1.6
2017-Sep-17 02:59N 46°17' W 001°56'4 4.6
2017-Sep-17 02:08N 46°21' W 001°54'2 8.9
2017-Sep-17 01:54N 46°23' W 001°52'3 8.9
2017-Sep-17 01:31N 46°26' W 001°50'4 8.0
2017-Sep-17 01:00N 46°30' W 001°48'0 0.5
2017-Sep-17 00:30N 46°30' W 001°47'0 0.0
2017-Sep-17 00:00N 46°30' W 001°47'0 0.0
2017-Sep-16 23:31N 46°30' W 001°47'0 0.0
2017-Sep-16 23:00N 46°30' W 001°47'0 0.0
2017-Sep-16 22:30N 46°30' W 001°47'0 0.0
2017-Sep-16 22:00N 46°30' W 001°47'0 0.0
2017-Sep-16 21:30N 46°30' W 001°47'0 0.0
2017-Sep-16 21:00N 46°30' W 001°47'0 0.0
2017-Sep-16 20:30N 46°30' W 001°47'0 0.0
2017-Sep-16 20:00N 46°30' W 001°47'0 0.0
2017-Sep-16 19:30N 46°30' W 001°47'0 0.0
2017-Sep-16 19:00N 46°30' W 001°47'0 0.0
2017-Sep-16 18:31N 46°30' W 001°47'0 0.0
2017-Sep-16 18:00N 46°30' W 001°47'0 0.0
2017-Sep-16 17:30N 46°30' W 001°47'0 0.0
2017-Sep-16 17:00N 46°30' W 001°47'0 0.0
2017-Sep-16 16:30N 46°30' W 001°47'0 0.3
2017-Sep-16 16:00N 46°30' W 001°47'1 1.2
2017-Sep-16 15:30N 46°29' W 001°48'3 6.9
2017-Sep-16 15:00N 46°27' W 001°51'4 8.0
2017-Sep-16 14:30N 46°24' W 001°55'4 7.9
2017-Sep-16 14:00N 46°21' W 001°59'0 0.6
2017-Sep-16 13:25N 46°21' W 001°59'3 5.7
2017-Sep-16 12:51N 46°18' W 001°56'0 0.5
2017-Sep-16 12:27N 46°18' W 001°57'1 3.2
2017-Sep-16 11:59N 46°17' W 001°56'4 6.7
2017-Sep-16 11:27N 46°20' W 001°58'1 1.0
2017-Sep-16 10:53N 46°20' W 001°58'1 1.6
2017-Sep-16 10:28N 46°20' W 001°58'1 1.5
2017-Sep-16 09:54N 46°20' W 001°58'0 0.4
2017-Sep-16 09:30N 46°20' W 001°58'0 0.4
2017-Sep-16 08:38N 46°20' W 001°58'0 1.1
2017-Sep-16 08:15N 46°20' W 001°58'1 1.3
2017-Sep-16 07:49N 46°20' W 001°57'2 1.1
2017-Sep-16 06:03N 46°18' W 001°57'1 0.8
2017-Sep-16 04:18N 46°17' W 001°56'0 0.2
2017-Sep-16 03:14N 46°17' W 001°56'1 4.4
2017-Sep-16 02:59N 46°18' W 001°57'  
Track history (hours):
 
Tides and Currents Weather Stations Pressure Air Temp Water Temp Dewpoint Dewpoint Depression Visibility Wind Speed Wind Dir Waves Ship Positions

F/V Anna Mamm Mari

Last reported at 2017-Sep-26 02:47 UTC. Time now 2017-Sep-26 03:45 UTC.
Position N 46°29' W 002°04'.

Length 17 m.

Type: Fishing. MMSI: 228393000.

Date/timePositionNaut miles runAvg speedWind from/ knotsBaromVisibWave heightAir tempDewpointWater temp
2017-Sep-26 02:47N 46°29' W 002°04'0 0.2
2017-Sep-26 02:30N 46°29' W 002°04'0 0.2
2017-Sep-26 02:00N 46°29' W 002°04'0 0.2
2017-Sep-26 01:30N 46°29' W 002°04'0 0.1
2017-Sep-26 01:00N 46°29' W 002°04'0 0.1
2017-Sep-26 00:29N 46°29' W 002°04'0 0.0
2017-Sep-26 00:00N 46°29' W 002°04'0 0.1
2017-Sep-25 23:30N 46°29' W 002°04'0 0.1
2017-Sep-25 23:00N 46°29' W 002°04'0 0.1
2017-Sep-25 22:31N 46°29' W 002°04'0 0.1
2017-Sep-25 22:00N 46°29' W 002°04'0 0.1
2017-Sep-25 21:30N 46°29' W 002°04'0 0.0
2017-Sep-25 21:00N 46°29' W 002°04'0 0.1
2017-Sep-25 20:31N 46°29' W 002°04'0 0.0
2017-Sep-25 20:01N 46°29' W 002°04'0 0.0
2017-Sep-25 19:30N 46°29' W 002°04'0 0.0
2017-Sep-25 18:59N 46°29' W 002°04'0 0.0
2017-Sep-25 18:30N 46°29' W 002°04'0 0.1
2017-Sep-25 17:40N 46°29' W 002°04'0 2.4
2017-Sep-25 17:31N 46°29' W 002°03'0 0.8
2017-Sep-25 17:00N 46°29' W 002°04'0 0.8
2017-Sep-25 16:26N 46°28' W 002°04'0 0.9
2017-Sep-25 16:00N 46°28' W 002°04'1 1.2
2017-Sep-25 15:20N 46°27' W 002°03'1 3.8
2017-Sep-25 15:00N 46°28' W 002°04'2 3.1
2017-Sep-25 14:31N 46°27' W 002°04'0 0.2
2017-Sep-25 13:57N 46°27' W 002°04'1 3.3
2017-Sep-25 13:30N 46°28' W 002°05'2 4.2
2017-Sep-25 13:00N 46°26' W 002°04'0 0.6
2017-Sep-25 12:25N 46°26' W 002°04'1 1.6
2017-Sep-25 12:00N 46°27' W 002°05'1 1.5
2017-Sep-25 11:30N 46°28' W 002°05'1 1.7
2017-Sep-25 10:59N 46°28' W 002°05'1 2.0
2017-Sep-25 10:30N 46°28' W 002°05'1 2.0
2017-Sep-25 10:00N 46°27' W 002°04'1 1.4
2017-Sep-25 09:30N 46°26' W 002°04'1 1.9
2017-Sep-25 09:00N 46°27' W 002°04'1 2.2
2017-Sep-25 08:30N 46°28' W 002°05'0 0.4
2017-Sep-25 08:00N 46°28' W 002°05'1 1.4
2017-Sep-25 07:30N 46°28' W 002°04'1 2.1
2017-Sep-25 06:59N 46°27' W 002°04'0 0.2
2017-Sep-25 06:17N 46°27' W 002°03'0 1.4
2017-Sep-25 06:00N 46°27' W 002°04'1 2.2
2017-Sep-25 05:30N 46°28' W 002°04'1 1.5
2017-Sep-25 04:58N 46°29' W 002°05'1 1.6
2017-Sep-25 04:30N 46°28' W 002°04'1 1.7
2017-Sep-25 03:59N 46°27' W 002°04'4 7.1
2017-Sep-25 03:27N 46°28' W 001°58'4 8.9
2017-Sep-25 03:00N 46°28' W 001°53'4 7.4
2017-Sep-25 02:31N 46°29' W 001°47'1 1.2
2017-Sep-25 02:01N 46°30' W 001°47'0 0.0
2017-Sep-25 01:30N 46°30' W 001°47'0 0.0
2017-Sep-25 01:00N 46°30' W 001°47'0 0.0
2017-Sep-25 00:30N 46°30' W 001°47'0 0.0
2017-Sep-25 00:00N 46°30' W 001°47'0 0.0
2017-Sep-24 23:31N 46°30' W 001°47'0 0.0
2017-Sep-24 23:00N 46°30' W 001°47'0 0.0
2017-Sep-24 22:30N 46°30' W 001°47'0 0.0
2017-Sep-24 22:01N 46°30' W 001°47'0 0.0
2017-Sep-24 21:30N 46°30' W 001°47'0 0.0
2017-Sep-24 21:00N 46°30' W 001°47'0 0.0
2017-Sep-24 20:31N 46°30' W 001°47'0 0.0
2017-Sep-24 20:00N 46°30' W 001°47'0 0.0
2017-Sep-24 19:30N 46°30' W 001°47'0 0.0
2017-Sep-24 19:00N 46°30' W 001°47'0 0.0
2017-Sep-24 18:30N 46°30' W 001°47'0 0.0
2017-Sep-24 18:00N 46°30' W 001°47'0 0.0
2017-Sep-24 17:30N 46°30' W 001°47'0 0.3
2017-Sep-24 17:00N 46°30' W 001°47'0 0.3
2017-Sep-24 16:30N 46°30' W 001°47'0 0.1
2017-Sep-24 16:00N 46°30' W 001°47'1 1.7
2017-Sep-24 15:30N 46°29' W 001°47'4 8.4
2017-Sep-24 15:00N 46°28' W 001°53'4 9.0
2017-Sep-24 14:31N 46°28' W 001°60'3 6.5
2017-Sep-24 14:00N 46°29' W 002°04'4 8.9
2017-Sep-24 13:30N 46°27' W 002°10'2 1.7
2017-Sep-24 12:37N 46°25' W 002°09'1 6.5
2017-Sep-24 12:27N 46°26' W 002°08'3 7.0
2017-Sep-24 12:00N 46°28' W 002°04'1 2.4
2017-Sep-24 11:30N 46°27' W 002°03'2 4.0
2017-Sep-24 11:00N 46°28' W 002°05'2 3.4
2017-Sep-24 10:30N 46°27' W 002°04'0 0.3
2017-Sep-24 09:59N 46°27' W 002°04'0 0.3
2017-Sep-24 09:31N 46°27' W 002°04'2 3.1
2017-Sep-24 09:01N 46°28' W 002°05'1 1.5
2017-Sep-24 08:30N 46°27' W 002°05'1 2.2
2017-Sep-24 08:00N 46°27' W 002°04'2 3.2
2017-Sep-24 07:30N 46°28' W 002°05'1 1.1
2017-Sep-24 06:58N 46°28' W 002°04'1 2.2
2017-Sep-24 06:30N 46°27' W 002°03'0 0.3
2017-Sep-24 05:57N 46°27' W 002°03'1 2.9
2017-Sep-24 05:30N 46°28' W 002°04'1 2.0
2017-Sep-24 05:00N 46°29' W 002°04'1 2.7
2017-Sep-24 04:30N 46°28' W 002°03'1 1.5
2017-Sep-24 04:00N 46°27' W 002°03'1 2.4
2017-Sep-24 03:29N 46°28' W 002°03'0 0.0
2017-Sep-24 03:00N 46°28' W 002°03'0 0.0
2017-Sep-24 02:30N 46°28' W 002°03'0 0.0
2017-Sep-24 02:00N 46°28' W 002°04'0 0.0
2017-Sep-24 01:30N 46°28' W 002°04'0 0.1
2017-Sep-24 01:00N 46°28' W 002°04'0 0.1
2017-Sep-24 00:30N 46°28' W 002°04'0 0.2
2017-Sep-24 00:00N 46°28' W 002°04'0 0.1
2017-Sep-23 23:30N 46°28' W 002°04'0 0.1
2017-Sep-23 23:00N 46°28' W 002°04'0 0.0
2017-Sep-23 22:30N 46°28' W 002°04'0 0.0
2017-Sep-23 22:00N 46°28' W 002°04'0 0.0
2017-Sep-23 21:30N 46°28' W 002°04'0 0.1
2017-Sep-23 21:00N 46°28' W 002°04'0 0.2
2017-Sep-23 20:30N 46°28' W 002°04'0 0.2
2017-Sep-23 20:00N 46°28' W 002°04'0 0.0
2017-Sep-22 02:00N 46°28' W 002°04'0 0.0
2017-Sep-22 01:30N 46°28' W 002°04'0 0.0
2017-Sep-22 01:00N 46°28' W 002°04'0 0.1
2017-Sep-22 00:30N 46°28' W 002°04'0 0.0
2017-Sep-22 00:00N 46°28' W 002°04'0 0.0
2017-Sep-21 23:31N 46°28' W 002°04'0 0.0
2017-Sep-21 23:01N 46°28' W 002°04'0 0.0
2017-Sep-21 22:30N 46°28' W 002°04'0 0.0
2017-Sep-21 22:00N 46°28' W 002°04'0 0.0
2017-Sep-21 21:30N 46°28' W 002°04'0 0.0
2017-Sep-21 21:00N 46°28' W 002°04'0 0.0
2017-Sep-21 20:30N 46°28' W 002°04'0 0.0
2017-Sep-21 20:01N 46°28' W 002°04'0 0.0
2017-Sep-21 19:30N 46°28' W 002°04'0 0.0
2017-Sep-21 19:00N 46°28' W 002°04'0 0.0
2017-Sep-21 18:30N 46°28' W 002°04'0 0.0
2017-Sep-21 18:00N 46°28' W 002°04'0 0.0
2017-Sep-21 17:30N 46°28' W 002°04'0 0.0
2017-Sep-21 17:00N 46°28' W 002°04'0 0.1
2017-Sep-21 16:30N 46°28' W 002°04'0 0.1
2017-Sep-21 15:52N 46°28' W 002°03'0 0.1
2017-Sep-21 15:30N 46°28' W 002°03'0 0.0
2017-Sep-21 15:00N 46°28' W 002°03'0 0.0
2017-Sep-21 14:30N 46°28' W 002°03'0 0.1
2017-Sep-21 14:00N 46°28' W 002°04'0 0.0
2017-Sep-21 13:30N 46°28' W 002°04'0 0.0
2017-Sep-21 13:00N 46°28' W 002°04'0 0.8
2017-Sep-21 12:30N 46°28' W 002°04'0 0.9
2017-Sep-21 12:00N 46°28' W 002°05'1 2.6
2017-Sep-21 11:30N 46°27' W 002°04'0 1.0
2017-Sep-21 11:00N 46°27' W 002°04'1 1.0
2017-Sep-21 10:26N 46°27' W 002°05'1 3.0
2017-Sep-21 10:00N 46°26' W 002°04'1 2.8
2017-Sep-21 09:30N 46°27' W 002°05'1 2.5
2017-Sep-21 09:01N 46°28' W 002°06'1 2.2
2017-Sep-21 08:27N 46°27' W 002°05'1 2.6
2017-Sep-21 08:00N 46°26' W 002°04'0 0.7
2017-Sep-21 07:30N 46°26' W 002°04'1 2.7
2017-Sep-21 07:00N 46°28' W 002°05'0 0.4
2017-Sep-21 06:26N 46°27' W 002°05'1 2.0
2017-Sep-21 06:00N 46°28' W 002°05'1 2.7
2017-Sep-21 05:30N 46°27' W 002°04'1 2.7
2017-Sep-21 05:00N 46°26' W 002°03'1 2.1
2017-Sep-21 04:30N 46°27' W 002°03'1 2.4
2017-Sep-21 04:00N 46°28' W 002°04'3 5.5
2017-Sep-21 03:30N 46°28' W 002°00'4 8.2
2017-Sep-21 03:00N 46°28' W 001°54'4 8.4
2017-Sep-21 02:30N 46°28' W 001°48'2 3.2
2017-Sep-21 02:00N 46°30' W 001°47'0 0.0
2017-Sep-21 01:30N 46°30' W 001°47'0 0.0
2017-Sep-21 01:00N 46°30' W 001°47'0 0.0
2017-Sep-21 00:30N 46°30' W 001°47'0 0.0
2017-Sep-21 00:01N 46°30' W 001°47'0 0.0
2017-Sep-20 23:30N 46°30' W 001°47'0 0.0
2017-Sep-20 23:01N 46°30' W 001°47'0 0.0
2017-Sep-20 22:30N 46°30' W 001°47'0 0.0
2017-Sep-20 22:00N 46°30' W 001°47'0 0.0
2017-Sep-20 21:30N 46°30' W 001°47'0 0.0
2017-Sep-20 21:00N 46°30' W 001°47'0 0.0
2017-Sep-20 20:30N 46°30' W 001°47'0 0.0
2017-Sep-20 20:00N 46°30' W 001°47'0 0.0
2017-Sep-20 19:30N 46°30' W 001°47'0 0.0
2017-Sep-20 19:00N 46°30' W 001°47'0 0.1
2017-Sep-20 18:30N 46°30' W 001°47'0 0.0
2017-Sep-20 18:00N 46°30' W 001°47'0 0.0
2017-Sep-20 17:30N 46°30' W 001°47'0 0.0
2017-Sep-20 17:00N 46°30' W 001°47'0 0.0
2017-Sep-20 16:30N 46°30' W 001°47'0 0.0
2017-Sep-20 16:00N 46°30' W 001°47'0 0.3
2017-Sep-20 15:31N 46°30' W 001°47'0 0.0
2017-Sep-20 15:00N 46°30' W 001°47'0 0.0
2017-Sep-20 14:00N 46°30' W 001°47'0 0.0
2017-Sep-20 13:30N 46°30' W 001°47'1 1.2
2017-Sep-20 13:00N 46°29' W 001°47'4 8.1
2017-Sep-20 12:30N 46°28' W 001°53'4 8.7
2017-Sep-20 12:00N 46°28' W 001°59'3 5.7
2017-Sep-20 11:27N 46°27' W 002°04'1 1.5
2017-Sep-20 11:00N 46°28' W 002°04'2 3.0
2017-Sep-20 10:30N 46°26' W 002°04'2 4.9
2017-Sep-20 10:00N 46°28' W 002°06'3 5.7
2017-Sep-20 09:30N 46°25' W 002°05'3 5.3
2017-Sep-20 08:54N 46°24' W 002°09'1 2.0
2017-Sep-20 08:30N 46°25' W 002°09'1 2.5
2017-Sep-20 08:00N 46°26' W 002°10'1 1.0
2017-Sep-20 06:41N 46°25' W 002°09'1 2.8
2017-Sep-20 06:28N 46°24' W 002°08'1 2.3
2017-Sep-20 05:56N 46°23' W 002°07'0 1.1
2017-Sep-20 05:30N 46°23' W 002°08'9 0.5
2017-Sep-19 10:57N 46°19' W 001°56'4 8.0
2017-Sep-19 10:29N 46°17' W 001°52'4 8.9
2017-Sep-19 10:00N 46°13' W 001°49'9 0.2
2017-Sep-17 09:07N 46°20' W 001°58'0 2.8
2017-Sep-17 08:58N 46°20' W 001°57'0 0.4
2017-Sep-17 08:21N 46°20' W 001°58'0 0.5
2017-Sep-17 07:53N 46°20' W 001°58'0 0.3
2017-Sep-17 07:30N 46°20' W 001°58'0 0.7
2017-Sep-17 06:53N 46°20' W 001°58'1 2.2
2017-Sep-17 06:30N 46°19' W 001°58'0 0.7
2017-Sep-17 05:52N 46°19' W 001°58'2 2.4
2017-Sep-17 04:56N 46°17' W 001°56'1 1.6
2017-Sep-17 04:30N 46°18' W 001°56'1 0.8
2017-Sep-17 03:40N 46°18' W 001°57'1 2.9
2017-Sep-17 03:11N 46°17' W 001°56'0 1.6
2017-Sep-17 02:59N 46°17' W 001°56'4 4.6
2017-Sep-17 02:08N 46°21' W 001°54'2 8.9
2017-Sep-17 01:54N 46°23' W 001°52'3 8.9
2017-Sep-17 01:31N 46°26' W 001°50'4 8.0
2017-Sep-17 01:00N 46°30' W 001°48'0 0.5
2017-Sep-17 00:30N 46°30' W 001°47'0 0.0
2017-Sep-17 00:00N 46°30' W 001°47'0 0.0
2017-Sep-16 23:31N 46°30' W 001°47'0 0.0
2017-Sep-16 23:00N 46°30' W 001°47'0 0.0
2017-Sep-16 22:30N 46°30' W 001°47'0 0.0
2017-Sep-16 22:00N 46°30' W 001°47'0 0.0
2017-Sep-16 21:30N 46°30' W 001°47'0 0.0
2017-Sep-16 21:00N 46°30' W 001°47'0 0.0
2017-Sep-16 20:30N 46°30' W 001°47'0 0.0
2017-Sep-16 20:00N 46°30' W 001°47'0 0.0
2017-Sep-16 19:30N 46°30' W 001°47'0 0.0
2017-Sep-16 19:00N 46°30' W 001°47'0 0.0
2017-Sep-16 18:31N 46°30' W 001°47'0 0.0
2017-Sep-16 18:00N 46°30' W 001°47'0 0.0
2017-Sep-16 17:30N 46°30' W 001°47'0 0.0
2017-Sep-16 17:00N 46°30' W 001°47'0 0.0
2017-Sep-16 16:30N 46°30' W 001°47'0 0.3
2017-Sep-16 16:00N 46°30' W 001°47'1 1.2
2017-Sep-16 15:30N 46°29' W 001°48'3 6.9
2017-Sep-16 15:00N 46°27' W 001°51'4 8.0
2017-Sep-16 14:30N 46°24' W 001°55'4 7.9
2017-Sep-16 14:00N 46°21' W 001°59'0 0.6
2017-Sep-16 13:25N 46°21' W 001°59'3 5.7
2017-Sep-16 12:51N 46°18' W 001°56'0 0.5
2017-Sep-16 12:27N 46°18' W 001°57'1 3.2
2017-Sep-16 11:59N 46°17' W 001°56'4 6.7
2017-Sep-16 11:27N 46°20' W 001°58'1 1.0
2017-Sep-16 10:53N 46°20' W 001°58'1 1.6
2017-Sep-16 10:28N 46°20' W 001°58'1 1.5
2017-Sep-16 09:54N 46°20' W 001°58'0 0.4
2017-Sep-16 09:30N 46°20' W 001°58'0 0.4
2017-Sep-16 08:38N 46°20' W 001°58'0 1.1
2017-Sep-16 08:15N 46°20' W 001°58'1 1.3
2017-Sep-16 07:49N 46°20' W 001°57'2 1.1
2017-Sep-16 06:03N 46°18' W 001°57'1 0.8
2017-Sep-16 04:18N 46°17' W 001°56'0 0.2
2017-Sep-16 03:14N 46°17' W 001°56'1 4.4
2017-Sep-16 02:59N 46°18' W 001°57'  

Dump ship's entire track history